sensor_id;sensor_type;location;lat;lon;timestamp;temperature;humidity
9987;DHT22;5033;46.310;11.214;2023-09-12T00:01:04;22.40;99.90
9987;DHT22;5033;46.310;11.214;2023-09-12T00:03:32;22.40;99.90
9987;DHT22;5033;46.310;11.214;2023-09-12T00:06:02;22.40;99.90
9987;DHT22;5033;46.310;11.214;2023-09-12T00:08:30;22.40;99.90
9987;DHT22;5033;46.310;11.214;2023-09-12T00:11:01;22.40;99.90
9987;DHT22;5033;46.310;11.214;2023-09-12T00:13:29;22.50;99.90
9987;DHT22;5033;46.310;11.214;2023-09-12T00:15:57;22.50;99.90
9987;DHT22;5033;46.310;11.214;2023-09-12T00:18:24;22.50;99.90
9987;DHT22;5033;46.310;11.214;2023-09-12T00:20:52;22.50;99.90
9987;DHT22;5033;46.310;11.214;2023-09-12T00:23:22;22.50;99.90
9987;DHT22;5033;46.310;11.214;2023-09-12T00:25:49;22.50;99.90
9987;DHT22;5033;46.310;11.214;2023-09-12T00:28:17;22.40;99.90
9987;DHT22;5033;46.310;11.214;2023-09-12T00:30:44;22.40;99.90
9987;DHT22;5033;46.310;11.214;2023-09-12T00:33:11;22.30;99.90
9987;DHT22;5033;46.310;11.214;2023-09-12T00:35:38;22.30;99.90
9987;DHT22;5033;46.310;11.214;2023-09-12T00:38:05;22.30;99.90
9987;DHT22;5033;46.310;11.214;2023-09-12T00:40:33;22.20;99.90
9987;DHT22;5033;46.310;11.214;2023-09-12T00:43:00;22.20;99.90
9987;DHT22;5033;46.310;11.214;2023-09-12T00:45:27;22.10;99.90
9987;DHT22;5033;46.310;11.214;2023-09-12T00:47:55;22.20;99.90
9987;DHT22;5033;46.310;11.214;2023-09-12T00:50:25;22.10;99.90
9987;DHT22;5033;46.310;11.214;2023-09-12T00:52:53;22.10;99.90
9987;DHT22;5033;46.310;11.214;2023-09-12T00:55:21;22.00;99.90
9987;DHT22;5033;46.310;11.214;2023-09-12T00:57:50;22.00;99.90
9987;DHT22;5033;46.310;11.214;2023-09-12T01:00:17;22.00;99.90
9987;DHT22;5033;46.310;11.214;2023-09-12T01:02:46;21.90;99.90
9987;DHT22;5033;46.310;11.214;2023-09-12T01:05:15;21.90;99.90
9987;DHT22;5033;46.310;11.214;2023-09-12T01:07:43;21.90;99.90
9987;DHT22;5033;46.310;11.214;2023-09-12T01:10:11;21.90;99.90
9987;DHT22;5033;46.310;11.214;2023-09-12T01:12:38;21.90;99.90
9987;DHT22;5033;46.310;11.214;2023-09-12T01:15:07;21.90;99.90
9987;DHT22;5033;46.310;11.214;2023-09-12T01:17:40;21.90;99.90
9987;DHT22;5033;46.310;11.214;2023-09-12T01:20:10;21.90;99.90
9987;DHT22;5033;46.310;11.214;2023-09-12T01:22:52;21.90;99.90
9987;DHT22;5033;46.310;11.214;2023-09-12T01:25:41;21.80;99.90
9987;DHT22;5033;46.310;11.214;2023-09-12T01:28:12;21.80;99.90
9987;DHT22;5033;46.310;11.214;2023-09-12T01:30:42;21.80;99.90
9987;DHT22;5033;46.310;11.214;2023-09-12T01:33:11;21.80;99.90
9987;DHT22;5033;46.310;11.214;2023-09-12T01:35:38;21.70;99.90
9987;DHT22;5033;46.310;11.214;2023-09-12T01:38:05;21.70;99.90
9987;DHT22;5033;46.310;11.214;2023-09-12T01:40:35;21.60;99.90
9987;DHT22;5033;46.310;11.214;2023-09-12T01:43:04;21.60;99.90
9987;DHT22;5033;46.310;11.214;2023-09-12T01:45:33;21.60;99.90
9987;DHT22;5033;46.310;11.214;2023-09-12T01:48:01;21.60;99.90
9987;DHT22;5033;46.310;11.214;2023-09-12T01:50:30;21.60;99.90
9987;DHT22;5033;46.310;11.214;2023-09-12T01:52:58;21.60;99.90
9987;DHT22;5033;46.310;11.214;2023-09-12T01:55:25;21.60;99.90
9987;DHT22;5033;46.310;11.214;2023-09-12T01:57:53;21.60;99.90
9987;DHT22;5033;46.310;11.214;2023-09-12T02:00:21;21.50;99.90
9987;DHT22;5033;46.310;11.214;2023-09-12T02:02:50;21.50;99.90
9987;DHT22;5033;46.310;11.214;2023-09-12T02:05:19;21.50;99.90
9987;DHT22;5033;46.310;11.214;2023-09-12T02:07:47;21.50;99.90
9987;DHT22;5033;46.310;11.214;2023-09-12T02:10:14;21.50;99.90
9987;DHT22;5033;46.310;11.214;2023-09-12T02:12:41;21.50;99.90
9987;DHT22;5033;46.310;11.214;2023-09-12T02:15:09;21.50;99.90
9987;DHT22;5033;46.310;11.214;2023-09-12T02:17:38;21.50;99.90
9987;DHT22;5033;46.310;11.214;2023-09-12T02:20:09;21.50;99.90
9987;DHT22;5033;46.310;11.214;2023-09-12T02:22:37;21.40;99.90
9987;DHT22;5033;46.310;11.214;2023-09-12T02:25:05;21.40;99.90
9987;DHT22;5033;46.310;11.214;2023-09-12T02:27:32;21.40;99.90
9987;DHT22;5033;46.310;11.214;2023-09-12T02:29:59;21.30;99.90
9987;DHT22;5033;46.310;11.214;2023-09-12T02:32:26;21.30;99.90
9987;DHT22;5033;46.310;11.214;2023-09-12T02:34:53;21.40;99.90
9987;DHT22;5033;46.310;11.214;2023-09-12T02:37:24;21.30;99.90
9987;DHT22;5033;46.310;11.214;2023-09-12T02:39:51;21.30;99.90
9987;DHT22;5033;46.310;11.214;2023-09-12T02:42:18;21.30;99.90
9987;DHT22;5033;46.310;11.214;2023-09-12T02:44:45;21.30;99.90
9987;DHT22;5033;46.310;11.214;2023-09-12T02:47:13;21.20;99.90
9987;DHT22;5033;46.310;11.214;2023-09-12T02:49:40;21.20;99.90
9987;DHT22;5033;46.310;11.214;2023-09-12T02:52:07;21.10;99.90
9987;DHT22;5033;46.310;11.214;2023-09-12T02:54:35;21.10;99.90
9987;DHT22;5033;46.310;11.214;2023-09-12T02:57:02;21.00;99.90
9987;DHT22;5033;46.310;11.214;2023-09-12T02:59:30;21.00;99.90
9987;DHT22;5033;46.310;11.214;2023-09-12T03:01:57;21.00;99.90
9987;DHT22;5033;46.310;11.214;2023-09-12T03:04:25;21.00;99.90
9987;DHT22;5033;46.310;11.214;2023-09-12T03:06:52;21.00;99.90
9987;DHT22;5033;46.310;11.214;2023-09-12T03:09:19;21.10;99.90
9987;DHT22;5033;46.310;11.214;2023-09-12T03:11:49;21.10;99.90
9987;DHT22;5033;46.310;11.214;2023-09-12T03:14:16;21.20;99.90
9987;DHT22;5033;46.310;11.214;2023-09-12T03:16:43;21.20;99.90
9987;DHT22;5033;46.310;11.214;2023-09-12T03:19:10;21.10;99.90
9987;DHT22;5033;46.310;11.214;2023-09-12T03:21:37;21.00;99.90
9987;DHT22;5033;46.310;11.214;2023-09-12T03:24:05;20.90;99.90
9987;DHT22;5033;46.310;11.214;2023-09-12T03:26:34;20.80;99.90
9987;DHT22;5033;46.310;11.214;2023-09-12T03:29:03;20.70;99.90
9987;DHT22;5033;46.310;11.214;2023-09-12T03:31:31;20.70;99.90
9987;DHT22;5033;46.310;11.214;2023-09-12T03:33:58;20.70;99.90
9987;DHT22;5033;46.310;11.214;2023-09-12T03:36:25;20.70;99.90
9987;DHT22;5033;46.310;11.214;2023-09-12T03:38:52;20.70;99.90
9987;DHT22;5033;46.310;11.214;2023-09-12T03:41:19;20.70;99.90
9987;DHT22;5033;46.310;11.214;2023-09-12T03:43:47;20.70;99.90
9987;DHT22;5033;46.310;11.214;2023-09-12T03:46:16;20.60;99.90
9987;DHT22;5033;46.310;11.214;2023-09-12T03:48:43;20.60;99.90
9987;DHT22;5033;46.310;11.214;2023-09-12T03:51:10;20.60;99.90
9987;DHT22;5033;46.310;11.214;2023-09-12T03:53:37;20.60;99.90
9987;DHT22;5033;46.310;11.214;2023-09-12T03:56:04;20.60;99.90
9987;DHT22;5033;46.310;11.214;2023-09-12T03:58:31;20.60;99.90
9987;DHT22;5033;46.310;11.214;2023-09-12T04:00:58;20.50;99.90
9987;DHT22;5033;46.310;11.214;2023-09-12T04:03:27;20.50;99.90
9987;DHT22;5033;46.310;11.214;2023-09-12T04:05:54;20.50;99.90
9987;DHT22;5033;46.310;11.214;2023-09-12T04:08:21;20.40;99.90
9987;DHT22;5033;46.310;11.214;2023-09-12T04:10:48;20.40;99.90
9987;DHT22;5033;46.310;11.214;2023-09-12T04:13:15;20.40;99.90
9987;DHT22;5033;46.310;11.214;2023-09-12T04:15:42;20.40;99.90
9987;DHT22;5033;46.310;11.214;2023-09-12T04:18:09;20.40;99.90
9987;DHT22;5033;46.310;11.214;2023-09-12T04:20:37;20.40;99.90
9987;DHT22;5033;46.310;11.214;2023-09-12T04:23:04;20.30;99.90
9987;DHT22;5033;46.310;11.214;2023-09-12T04:25:31;20.30;99.90
9987;DHT22;5033;46.310;11.214;2023-09-12T04:27:59;20.30;99.90
9987;DHT22;5033;46.310;11.214;2023-09-12T04:30:26;20.30;99.90
9987;DHT22;5033;46.310;11.214;2023-09-12T04:32:53;20.30;99.90
9987;DHT22;5033;46.310;11.214;2023-09-12T04:35:20;20.30;99.90
9987;DHT22;5033;46.310;11.214;2023-09-12T04:37:49;20.40;99.90
9987;DHT22;5033;46.310;11.214;2023-09-12T04:40:17;20.40;99.90
9987;DHT22;5033;46.310;11.214;2023-09-12T04:42:44;20.40;99.90
9987;DHT22;5033;46.310;11.214;2023-09-12T04:45:11;20.40;99.90
9987;DHT22;5033;46.310;11.214;2023-09-12T04:47:38;20.40;99.90
9987;DHT22;5033;46.310;11.214;2023-09-12T04:50:06;20.40;99.90
9987;DHT22;5033;46.310;11.214;2023-09-12T04:52:33;20.40;99.90
9987;DHT22;5033;46.310;11.214;2023-09-12T04:55:01;20.40;99.90
9987;DHT22;5033;46.310;11.214;2023-09-12T04:57:29;20.30;99.90
9987;DHT22;5033;46.310;11.214;2023-09-12T04:59:56;20.30;99.90
9987;DHT22;5033;46.310;11.214;2023-09-12T05:02:24;20.30;99.90
9987;DHT22;5033;46.310;11.214;2023-09-12T05:04:51;20.30;99.90
9987;DHT22;5033;46.310;11.214;2023-09-12T05:07:19;20.30;99.90
9987;DHT22;5033;46.310;11.214;2023-09-12T05:09:46;20.30;99.90
9987;DHT22;5033;46.310;11.214;2023-09-12T05:12:15;20.30;99.90
9987;DHT22;5033;46.310;11.214;2023-09-12T05:14:42;20.30;99.90
9987;DHT22;5033;46.310;11.214;2023-09-12T05:17:09;20.30;99.90
9987;DHT22;5033;46.310;11.214;2023-09-12T05:19:36;20.40;99.90
9987;DHT22;5033;46.310;11.214;2023-09-12T05:22:03;20.60;99.90
9987;DHT22;5033;46.310;11.214;2023-09-12T05:24:30;20.60;99.90
9987;DHT22;5033;46.310;11.214;2023-09-12T05:26:57;20.70;99.90
9987;DHT22;5033;46.310;11.214;2023-09-12T05:29:26;20.90;99.90
9987;DHT22;5033;46.310;11.214;2023-09-12T05:31:53;21.00;99.90
9987;DHT22;5033;46.310;11.214;2023-09-12T05:34:20;21.20;99.90
9987;DHT22;5033;46.310;11.214;2023-09-12T05:36:47;21.20;99.90
9987;DHT22;5033;46.310;11.214;2023-09-12T05:39:14;21.30;99.90
9987;DHT22;5033;46.310;11.214;2023-09-12T05:41:41;21.40;99.90
9987;DHT22;5033;46.310;11.214;2023-09-12T05:44:08;21.50;99.90
9987;DHT22;5033;46.310;11.214;2023-09-12T05:46:36;21.70;99.90
9987;DHT22;5033;46.310;11.214;2023-09-12T05:49:03;21.90;99.90
9987;DHT22;5033;46.310;11.214;2023-09-12T05:51:30;22.00;99.90
9987;DHT22;5033;46.310;11.214;2023-09-12T05:53:57;22.10;99.90
9987;DHT22;5033;46.310;11.214;2023-09-12T05:56:26;22.10;99.90
9987;DHT22;5033;46.310;11.214;2023-09-12T05:58:53;22.10;99.90
9987;DHT22;5033;46.310;11.214;2023-09-12T06:01:20;22.20;99.90
9987;DHT22;5033;46.310;11.214;2023-09-12T06:03:49;22.30;99.90
9987;DHT22;5033;46.310;11.214;2023-09-12T06:06:16;22.40;99.90
9987;DHT22;5033;46.310;11.214;2023-09-12T06:08:43;22.20;99.90
9987;DHT22;5033;46.310;11.214;2023-09-12T06:11:10;22.20;99.90
9987;DHT22;5033;46.310;11.214;2023-09-12T06:13:37;22.20;99.90
9987;DHT22;5033;46.310;11.214;2023-09-12T06:16:04;22.20;99.90
9987;DHT22;5033;46.310;11.214;2023-09-12T06:18:31;22.50;99.90
9987;DHT22;5033;46.310;11.214;2023-09-12T06:21:00;22.90;99.90
9987;DHT22;5033;46.310;11.214;2023-09-12T06:23:29;23.00;99.90
9987;DHT22;5033;46.310;11.214;2023-09-12T06:25:57;23.20;99.90
9987;DHT22;5033;46.310;11.214;2023-09-12T06:28:28;23.20;99.90
9987;DHT22;5033;46.310;11.214;2023-09-12T06:30:55;23.30;99.90
9987;DHT22;5033;46.310;11.214;2023-09-12T06:33:24;23.40;99.90
9987;DHT22;5033;46.310;11.214;2023-09-12T06:35:51;23.30;99.90
9987;DHT22;5033;46.310;11.214;2023-09-12T06:38:21;23.20;99.90
9987;DHT22;5033;46.310;11.214;2023-09-12T06:40:48;23.20;99.90
9987;DHT22;5033;46.310;11.214;2023-09-12T06:43:15;23.40;99.90
9987;DHT22;5033;46.310;11.214;2023-09-12T06:45:42;23.60;99.90
9987;DHT22;5033;46.310;11.214;2023-09-12T06:48:10;23.60;99.90
9987;DHT22;5033;46.310;11.214;2023-09-12T06:50:37;23.70;99.90
9987;DHT22;5033;46.310;11.214;2023-09-12T06:53:04;23.70;99.90
9987;DHT22;5033;46.310;11.214;2023-09-12T06:55:34;23.70;99.90
9987;DHT22;5033;46.310;11.214;2023-09-12T06:58:01;23.80;99.90
9987;DHT22;5033;46.310;11.214;2023-09-12T07:00:29;24.10;99.90
9987;DHT22;5033;46.310;11.214;2023-09-12T07:02:57;24.20;99.90
9987;DHT22;5033;46.310;11.214;2023-09-12T07:05:24;24.10;99.90
9987;DHT22;5033;46.310;11.214;2023-09-12T07:07:52;24.00;99.90
9987;DHT22;5033;46.310;11.214;2023-09-12T07:10:19;23.90;99.90
9987;DHT22;5033;46.310;11.214;2023-09-12T07:12:48;23.90;99.90
9987;DHT22;5033;46.310;11.214;2023-09-12T07:15:15;24.10;99.90
9987;DHT22;5033;46.310;11.214;2023-09-12T07:17:42;24.10;99.90
9987;DHT22;5033;46.310;11.214;2023-09-12T07:20:10;24.20;99.90
9987;DHT22;5033;46.310;11.214;2023-09-12T07:22:38;24.20;99.90
9987;DHT22;5033;46.310;11.214;2023-09-12T07:25:07;24.10;99.90
9987;DHT22;5033;46.310;11.214;2023-09-12T07:27:37;24.10;99.90
9987;DHT22;5033;46.310;11.214;2023-09-12T07:30:07;24.20;99.90
9987;DHT22;5033;46.310;11.214;2023-09-12T07:32:34;24.40;99.90
9987;DHT22;5033;46.310;11.214;2023-09-12T07:35:01;24.40;99.90
9987;DHT22;5033;46.310;11.214;2023-09-12T07:37:28;24.30;99.90
9987;DHT22;5033;46.310;11.214;2023-09-12T07:39:55;24.40;99.90
9987;DHT22;5033;46.310;11.214;2023-09-12T07:42:23;24.50;99.90
9987;DHT22;5033;46.310;11.214;2023-09-12T07:44:50;24.50;99.90
9987;DHT22;5033;46.310;11.214;2023-09-12T07:47:18;24.40;99.90
9987;DHT22;5033;46.310;11.214;2023-09-12T07:49:46;24.20;99.90
9987;DHT22;5033;46.310;11.214;2023-09-12T07:52:19;24.00;99.90
9987;DHT22;5033;46.310;11.214;2023-09-12T07:54:46;23.80;99.90
9987;DHT22;5033;46.310;11.214;2023-09-12T07:57:13;23.70;99.90
9987;DHT22;5033;46.310;11.214;2023-09-12T07:59:40;23.60;99.90
9987;DHT22;5033;46.310;11.214;2023-09-12T08:02:07;23.70;99.90
9987;DHT22;5033;46.310;11.214;2023-09-12T08:04:35;23.80;99.90
9987;DHT22;5033;46.310;11.214;2023-09-12T08:07:03;24.00;99.90
9987;DHT22;5033;46.310;11.214;2023-09-12T08:09:48;24.00;99.90
9987;DHT22;5033;46.310;11.214;2023-09-12T08:12:16;24.00;99.90
9987;DHT22;5033;46.310;11.214;2023-09-12T08:14:43;24.00;99.90
9987;DHT22;5033;46.310;11.214;2023-09-12T08:17:11;24.00;99.90
9987;DHT22;5033;46.310;11.214;2023-09-12T08:19:40;24.10;99.90
9987;DHT22;5033;46.310;11.214;2023-09-12T08:22:08;24.20;99.90
9987;DHT22;5033;46.310;11.214;2023-09-12T08:24:36;24.40;99.90
9987;DHT22;5033;46.310;11.214;2023-09-12T08:27:03;24.60;99.90
9987;DHT22;5033;46.310;11.214;2023-09-12T08:29:31;25.00;99.90
9987;DHT22;5033;46.310;11.214;2023-09-12T08:31:59;25.30;99.90
9987;DHT22;5033;46.310;11.214;2023-09-12T08:34:26;25.70;99.90
9987;DHT22;5033;46.310;11.214;2023-09-12T08:36:54;26.00;99.90
9987;DHT22;5033;46.310;11.214;2023-09-12T08:39:24;26.20;99.90
9987;DHT22;5033;46.310;11.214;2023-09-12T08:41:51;26.50;99.90
9987;DHT22;5033;46.310;11.214;2023-09-12T08:44:20;26.70;99.90
9987;DHT22;5033;46.310;11.214;2023-09-12T08:46:55;26.80;99.90
9987;DHT22;5033;46.310;11.214;2023-09-12T08:49:22;27.00;99.90
9987;DHT22;5033;46.310;11.214;2023-09-12T08:51:50;27.20;99.90
9987;DHT22;5033;46.310;11.214;2023-09-12T08:54:17;27.40;99.90
9987;DHT22;5033;46.310;11.214;2023-09-12T08:56:44;27.60;99.90
9987;DHT22;5033;46.310;11.214;2023-09-12T08:59:12;27.70;99.90
9987;DHT22;5033;46.310;11.214;2023-09-12T09:01:39;28.00;99.90
9987;DHT22;5033;46.310;11.214;2023-09-12T09:04:09;28.20;99.90
9987;DHT22;5033;46.310;11.214;2023-09-12T09:06:36;28.30;99.90
9987;DHT22;5033;46.310;11.214;2023-09-12T09:09:05;28.00;99.90
9987;DHT22;5033;46.310;11.214;2023-09-12T09:11:33;27.70;99.90
9987;DHT22;5033;46.310;11.214;2023-09-12T09:14:02;27.60;99.90
9987;DHT22;5033;46.310;11.214;2023-09-12T09:16:29;27.90;99.90
9987;DHT22;5033;46.310;11.214;2023-09-12T09:19:00;28.10;99.90
9987;DHT22;5033;46.310;11.214;2023-09-12T09:21:29;28.50;99.90
9987;DHT22;5033;46.310;11.214;2023-09-12T09:23:58;28.40;99.90
9987;DHT22;5033;46.310;11.214;2023-09-12T09:26:25;27.90;99.90
9987;DHT22;5033;46.310;11.214;2023-09-12T09:29:03;28.00;99.90
9987;DHT22;5033;46.310;11.214;2023-09-12T09:31:30;28.30;99.90
9987;DHT22;5033;46.310;11.214;2023-09-12T09:34:00;28.40;99.90
9987;DHT22;5033;46.310;11.214;2023-09-12T09:36:31;28.10;99.90
9987;DHT22;5033;46.310;11.214;2023-09-12T09:38:58;27.70;99.90
9987;DHT22;5033;46.310;11.214;2023-09-12T09:41:26;27.40;99.90
9987;DHT22;5033;46.310;11.214;2023-09-12T09:43:53;27.10;99.90
9987;DHT22;5033;46.310;11.214;2023-09-12T09:46:20;27.00;99.90
9987;DHT22;5033;46.310;11.214;2023-09-12T09:48:51;27.20;99.90
9987;DHT22;5033;46.310;11.214;2023-09-12T09:51:19;27.60;99.90
9987;DHT22;5033;46.310;11.214;2023-09-12T09:53:51;28.00;99.90
9987;DHT22;5033;46.310;11.214;2023-09-12T09:56:18;28.40;99.90
9987;DHT22;5033;46.310;11.214;2023-09-12T09:58:49;28.60;99.90
9987;DHT22;5033;46.310;11.214;2023-09-12T10:01:18;28.50;99.90
9987;DHT22;5033;46.310;11.214;2023-09-12T10:03:46;28.80;99.90
9987;DHT22;5033;46.310;11.214;2023-09-12T10:06:15;29.10;99.90
9987;DHT22;5033;46.310;11.214;2023-09-12T10:08:44;29.30;99.90
9987;DHT22;5033;46.310;11.214;2023-09-12T10:11:14;29.40;99.90
9987;DHT22;5033;46.310;11.214;2023-09-12T10:13:48;29.40;99.90
9987;DHT22;5033;46.310;11.214;2023-09-12T10:16:16;29.20;99.90
9987;DHT22;5033;46.310;11.214;2023-09-12T10:18:49;28.90;99.90
9987;DHT22;5033;46.310;11.214;2023-09-12T10:21:21;28.90;99.90
9987;DHT22;5033;46.310;11.214;2023-09-12T10:23:50;28.80;99.90
9987;DHT22;5033;46.310;11.214;2023-09-12T10:26:19;28.70;99.90
9987;DHT22;5033;46.310;11.214;2023-09-12T10:28:47;28.60;99.90
9987;DHT22;5033;46.310;11.214;2023-09-12T10:31:15;28.50;99.90
9987;DHT22;5033;46.310;11.214;2023-09-12T10:33:43;28.60;99.90
9987;DHT22;5033;46.310;11.214;2023-09-12T10:36:12;28.90;99.90
9987;DHT22;5033;46.310;11.214;2023-09-12T10:38:42;28.80;99.90
9987;DHT22;5033;46.310;11.214;2023-09-12T10:41:11;28.90;99.90
9987;DHT22;5033;46.310;11.214;2023-09-12T10:43:42;29.20;99.90
9987;DHT22;5033;46.310;11.214;2023-09-12T10:46:12;29.40;99.90
9987;DHT22;5033;46.310;11.214;2023-09-12T10:48:39;29.30;99.90
9987;DHT22;5033;46.310;11.214;2023-09-12T10:51:07;29.20;99.90
9987;DHT22;5033;46.310;11.214;2023-09-12T10:53:35;29.30;99.90
9987;DHT22;5033;46.310;11.214;2023-09-12T10:56:16;29.30;99.90
9987;DHT22;5033;46.310;11.214;2023-09-12T10:59:14;29.30;99.90
9987;DHT22;5033;46.310;11.214;2023-09-12T11:01:42;29.30;99.90
9987;DHT22;5033;46.310;11.214;2023-09-12T11:04:41;29.20;99.90
9987;DHT22;5033;46.310;11.214;2023-09-12T11:07:33;29.20;99.90
9987;DHT22;5033;46.310;11.214;2023-09-12T11:10:21;29.00;99.90
9987;DHT22;5033;46.310;11.214;2023-09-12T11:12:49;28.90;99.90
9987;DHT22;5033;46.310;11.214;2023-09-12T11:15:19;29.10;99.90
9987;DHT22;5033;46.310;11.214;2023-09-12T11:17:48;29.20;99.90
9987;DHT22;5033;46.310;11.214;2023-09-12T11:20:16;29.30;99.90
9987;DHT22;5033;46.310;11.214;2023-09-12T11:22:44;29.60;99.90
9987;DHT22;5033;46.310;11.214;2023-09-12T11:25:19;29.60;99.90
9987;DHT22;5033;46.310;11.214;2023-09-12T11:28:02;29.60;99.90
9987;DHT22;5033;46.310;11.214;2023-09-12T11:30:32;29.80;99.90
9987;DHT22;5033;46.310;11.214;2023-09-12T11:33:03;30.00;99.90
9987;DHT22;5033;46.310;11.214;2023-09-12T11:35:36;29.90;99.90
9987;DHT22;5033;46.310;11.214;2023-09-12T11:38:03;29.90;99.90
9987;DHT22;5033;46.310;11.214;2023-09-12T11:40:43;29.80;99.90
9987;DHT22;5033;46.310;11.214;2023-09-12T11:43:20;30.10;99.90
9987;DHT22;5033;46.310;11.214;2023-09-12T11:45:50;30.00;99.90
9987;DHT22;5033;46.310;11.214;2023-09-12T11:48:18;30.20;99.90
9987;DHT22;5033;46.310;11.214;2023-09-12T11:50:50;30.40;99.90
9987;DHT22;5033;46.310;11.214;2023-09-12T11:53:20;30.60;99.90
9987;DHT22;5033;46.310;11.214;2023-09-12T11:55:48;30.70;99.90
9987;DHT22;5033;46.310;11.214;2023-09-12T11:58:17;30.50;99.90
9987;DHT22;5033;46.310;11.214;2023-09-12T12:00:45;30.30;99.90
9987;DHT22;5033;46.310;11.214;2023-09-12T12:03:15;30.20;99.90
9987;DHT22;5033;46.310;11.214;2023-09-12T12:05:42;30.10;99.90
9987;DHT22;5033;46.310;11.214;2023-09-12T12:08:10;30.00;99.90
9987;DHT22;5033;46.310;11.214;2023-09-12T12:10:38;29.90;99.90
9987;DHT22;5033;46.310;11.214;2023-09-12T12:13:05;29.70;99.90
9987;DHT22;5033;46.310;11.214;2023-09-12T12:15:33;29.80;99.90
9987;DHT22;5033;46.310;11.214;2023-09-12T12:18:00;29.70;99.90
9987;DHT22;5033;46.310;11.214;2023-09-12T12:20:29;29.60;99.90
9987;DHT22;5033;46.310;11.214;2023-09-12T12:22:56;29.70;99.90
9987;DHT22;5033;46.310;11.214;2023-09-12T12:25:23;29.60;99.90
9987;DHT22;5033;46.310;11.214;2023-09-12T12:27:50;29.70;99.90
9987;DHT22;5033;46.310;11.214;2023-09-12T12:30:18;30.00;99.90
9987;DHT22;5033;46.310;11.214;2023-09-12T12:32:47;30.00;99.90
9987;DHT22;5033;46.310;11.214;2023-09-12T12:35:18;30.00;99.90
9987;DHT22;5033;46.310;11.214;2023-09-12T12:37:48;29.50;99.90
9987;DHT22;5033;46.310;11.214;2023-09-12T12:40:16;29.20;99.90
9987;DHT22;5033;46.310;11.214;2023-09-12T12:42:44;29.30;99.90
9987;DHT22;5033;46.310;11.214;2023-09-12T12:45:12;29.20;99.90
9987;DHT22;5033;46.310;11.214;2023-09-12T12:47:40;29.20;99.90
9987;DHT22;5033;46.310;11.214;2023-09-12T12:50:11;29.20;99.90
9987;DHT22;5033;46.310;11.214;2023-09-12T12:52:39;29.40;99.90
9987;DHT22;5033;46.310;11.214;2023-09-12T12:55:10;29.70;99.90
9987;DHT22;5033;46.310;11.214;2023-09-12T12:57:37;29.90;99.90
9987;DHT22;5033;46.310;11.214;2023-09-12T13:00:07;29.90;99.90
9987;DHT22;5033;46.310;11.214;2023-09-12T13:02:36;30.00;99.90
9987;DHT22;5033;46.310;11.214;2023-09-12T13:05:05;30.00;99.90
9987;DHT22;5033;46.310;11.214;2023-09-12T13:07:34;30.00;99.90
9987;DHT22;5033;46.310;11.214;2023-09-12T13:10:01;29.90;99.90
9987;DHT22;5033;46.310;11.214;2023-09-12T13:12:31;29.90;99.90
9987;DHT22;5033;46.310;11.214;2023-09-12T13:14:58;29.90;99.90
9987;DHT22;5033;46.310;11.214;2023-09-12T13:17:25;30.20;99.90
9987;DHT22;5033;46.310;11.214;2023-09-12T13:19:52;30.70;99.90
9987;DHT22;5033;46.310;11.214;2023-09-12T13:22:19;31.10;99.90
9987;DHT22;5033;46.310;11.214;2023-09-12T13:24:46;31.30;99.90
9987;DHT22;5033;46.310;11.214;2023-09-12T13:27:13;31.40;99.90
9987;DHT22;5033;46.310;11.214;2023-09-12T13:29:42;31.30;99.90
9987;DHT22;5033;46.310;11.214;2023-09-12T13:32:09;31.10;99.90
9987;DHT22;5033;46.310;11.214;2023-09-12T13:34:38;30.80;99.90
9987;DHT22;5033;46.310;11.214;2023-09-12T13:37:05;30.70;99.90
9987;DHT22;5033;46.310;11.214;2023-09-12T13:39:32;30.50;99.90
9987;DHT22;5033;46.310;11.214;2023-09-12T13:41:59;30.30;99.90
9987;DHT22;5033;46.310;11.214;2023-09-12T13:44:28;30.20;99.90
9987;DHT22;5033;46.310;11.214;2023-09-12T13:46:57;30.10;99.90
9987;DHT22;5033;46.310;11.214;2023-09-12T13:49:24;30.00;99.90
9987;DHT22;5033;46.310;11.214;2023-09-12T13:51:51;29.90;99.90
9987;DHT22;5033;46.310;11.214;2023-09-12T13:54:18;29.80;99.90
9987;DHT22;5033;46.310;11.214;2023-09-12T13:56:45;29.70;99.90
9987;DHT22;5033;46.310;11.214;2023-09-12T13:59:12;29.60;99.90
9987;DHT22;5033;46.310;11.214;2023-09-12T14:01:39;29.40;99.90
9987;DHT22;5033;46.310;11.214;2023-09-12T14:04:07;29.20;99.90
9987;DHT22;5033;46.310;11.214;2023-09-12T14:06:34;29.20;99.90
9987;DHT22;5033;46.310;11.214;2023-09-12T14:09:02;29.10;99.90
9987;DHT22;5033;46.310;11.214;2023-09-12T14:11:29;29.00;99.90
9987;DHT22;5033;46.310;11.214;2023-09-12T14:13:56;29.00;99.90
9987;DHT22;5033;46.310;11.214;2023-09-12T14:16:23;29.10;99.90
9987;DHT22;5033;46.310;11.214;2023-09-12T14:18:50;29.10;99.90
9987;DHT22;5033;46.310;11.214;2023-09-12T14:21:18;29.10;99.90
9987;DHT22;5033;46.310;11.214;2023-09-12T14:23:45;29.20;99.90
9987;DHT22;5033;46.310;11.214;2023-09-12T14:26:12;29.20;99.90
9987;DHT22;5033;46.310;11.214;2023-09-12T14:28:39;29.30;99.90
9987;DHT22;5033;46.310;11.214;2023-09-12T14:31:06;29.30;99.90
9987;DHT22;5033;46.310;11.214;2023-09-12T14:33:39;29.30;99.90
9987;DHT22;5033;46.310;11.214;2023-09-12T14:36:07;29.20;99.90
9987;DHT22;5033;46.310;11.214;2023-09-12T14:38:36;29.10;99.90
9987;DHT22;5033;46.310;11.214;2023-09-12T14:41:03;29.10;99.90
9987;DHT22;5033;46.310;11.214;2023-09-12T14:43:30;29.10;99.90
9987;DHT22;5033;46.310;11.214;2023-09-12T14:45:57;28.90;99.90
9987;DHT22;5033;46.310;11.214;2023-09-12T14:48:25;28.80;99.90
9987;DHT22;5033;46.310;11.214;2023-09-12T14:50:53;28.80;99.90
9987;DHT22;5033;46.310;11.214;2023-09-12T14:53:21;28.80;99.90
9987;DHT22;5033;46.310;11.214;2023-09-12T14:55:49;28.80;99.90
9987;DHT22;5033;46.310;11.214;2023-09-12T14:58:16;28.80;99.90
9987;DHT22;5033;46.310;11.214;2023-09-12T15:00:43;28.80;99.90
9987;DHT22;5033;46.310;11.214;2023-09-12T15:03:10;28.80;99.90
9987;DHT22;5033;46.310;11.214;2023-09-12T15:05:37;28.70;99.90
9987;DHT22;5033;46.310;11.214;2023-09-12T15:08:04;28.80;99.90
9987;DHT22;5033;46.310;11.214;2023-09-12T15:10:32;28.80;99.90
9987;DHT22;5033;46.310;11.214;2023-09-12T15:13:01;28.70;99.90
9987;DHT22;5033;46.310;11.214;2023-09-12T15:15:28;28.60;99.90
9987;DHT22;5033;46.310;11.214;2023-09-12T15:17:55;28.60;99.90
9987;DHT22;5033;46.310;11.214;2023-09-12T15:20:22;28.60;99.90
9987;DHT22;5033;46.310;11.214;2023-09-12T15:22:49;28.50;99.90
9987;DHT22;5033;46.310;11.214;2023-09-12T15:25:16;28.20;99.90
9987;DHT22;5033;46.310;11.214;2023-09-12T15:27:43;28.10;99.90
9987;DHT22;5033;46.310;11.214;2023-09-12T15:30:13;28.00;99.90
9987;DHT22;5033;46.310;11.214;2023-09-12T15:32:41;28.00;99.90
9987;DHT22;5033;46.310;11.214;2023-09-12T15:35:08;27.90;99.90
9987;DHT22;5033;46.310;11.214;2023-09-12T15:37:36;27.90;99.90
9987;DHT22;5033;46.310;11.214;2023-09-12T15:40:04;28.00;99.90
9987;DHT22;5033;46.310;11.214;2023-09-12T15:42:31;28.00;99.90
9987;DHT22;5033;46.310;11.214;2023-09-12T15:44:58;28.00;99.90
9987;DHT22;5033;46.310;11.214;2023-09-12T15:47:27;28.00;99.90
9987;DHT22;5033;46.310;11.214;2023-09-12T15:49:54;27.90;99.90
9987;DHT22;5033;46.310;11.214;2023-09-12T15:52:23;27.90;99.90